Weather at Mark Reed Hospital Heliport

Public forecast

Using degrees Fahrenheit for public forecast. Weather courtesy of forecast.io.

Closest aviation weather report (METAR) to Mark Reed Hospital Heliport

Closest report is Sanderson Field, 11.4 nm (21.2 km) NNE.

2024/07/22 22:53 (retrieved 1 hour ago)

KSHN 222253Z AUTO 22008G17KT 10SM OVC046 23/11 A3009 RMK AO2 SLP189 T02280106

Closest aviation forecast (TAF) to Mark Reed Hospital Heliport

Closest forecast is Olympia Regional Airport, 15.6 nm (28.8 km) ESE.

2024/07/22 18:34 Ammendment (retrieved 5 hours ago)

TAF KOLM 221732Z 2218/2318 15007KT P6SM OVC015 FM222100 25010KT P6SM SCT045 FM230600 21007KT P6SM SCT050 FM231300 18003KT P6SM BKN015 AMD NOT SKED